Time,TemperatureF,DewpointF,PressureIn,WindDirection,WindDirectionDegrees,WindSpeedMPH,WindSpeedGustMPH,Humidity,HourlyPrecipIn,Conditions,Clouds,dailyrainin,SoftwareType,DateUTC
2013-02-12 00:05:00,46.2,17.0,30.11,NNW,328,0.0,15.0,31,0.00,,,0.00,weatherlink.com 1.10,2013-02-12 05:05:00,
2013-02-12 00:20:00,45.5,18.0,30.11,South,190,1.0,6.0,33,0.00,,,0.00,weatherlink.com 1.10,2013-02-12 05:20:00,
2013-02-12 00:36:00,45.1,16.0,30.11,ESE,120,1.0,4.0,31,0.00,,,0.00,weatherlink.com 1.10,2013-02-12 05:36:00,
2013-02-12 00:51:00,44.1,18.0,30.11,WSW,246,0.0,5.0,35,0.00,,,0.00,weatherlink.com 1.10,2013-02-12 05:51:00,
2013-02-12 01:06:00,43.6,19.0,30.10,ESE,118,0.0,4.0,38,0.00,,,0.00,weatherlink.com 1.10,2013-02-12 06:06:00,
2013-02-12 01:21:00,43.4,19.0,30.10,WSW,243,0.0,4.0,38,0.00,,,0.00,weatherlink.com 1.10,2013-02-12 06:21:00,
2013-02-12 01:36:00,42.1,21.0,30.10,SE,127,0.0,3.0,43,0.00,,,0.00,weatherlink.com 1.10,2013-02-12 06:36:00,
2013-02-12 01:51:00,41.2,25.0,30.10,South,188,1.0,3.0,52,0.00,,,0.00,weatherlink.com 1.10,2013-02-12 06:51:00,
2013-02-12 02:06:00,42.2,24.0,30.10,NNW,338,1.0,10.0,48,0.00,,,0.00,weatherlink.com 1.10,2013-02-12 07:06:00,
2013-02-12 02:21:00,42.3,19.0,30.11,SE,125,4.0,4.0,39,0.00,,,0.00,weatherlink.com 1.10,2013-02-12 07:21:00,
2013-02-12 02:36:00,41.4,20.0,30.12,WSW,250,1.0,3.0,42,0.00,,,0.00,weatherlink.com 1.10,2013-02-12 07:36:00,
2013-02-12 02:51:00,42.7,21.0,30.11,South,183,2.0,6.0,42,0.00,,,0.00,weatherlink.com 1.10,2013-02-12 07:51:00,
2013-02-12 03:06:00,42.6,20.0,30.11,SSW,193,2.0,5.0,40,0.00,,,0.00,weatherlink.com 1.10,2013-02-12 08:06:00,
2013-02-12 03:21:00,42.0,20.0,30.10,SSW,208,0.0,4.0,41,0.00,,,0.00,weatherlink.com 1.10,2013-02-12 08:21:00,
2013-02-12 03:36:00,41.9,22.0,30.10,SE,133,0.0,2.0,46,0.00,,,0.00,weatherlink.com 1.10,2013-02-12 08:36:00,
2013-02-12 03:51:00,42.4,23.0,30.09,WSW,256,3.0,5.0,47,0.00,,,0.00,weatherlink.com 1.10,2013-02-12 08:51:00,
2013-02-12 04:06:00,41.9,26.0,30.10,SE,142,0.0,2.0,53,0.00,,,0.00,weatherlink.com 1.10,2013-02-12 09:06:00,
2013-02-12 04:21:00,42.2,20.0,30.11,SW,215,0.0,6.0,42,0.00,,,0.00,weatherlink.com 1.10,2013-02-12 09:21:00,
2013-02-12 04:36:00,42.2,21.0,30.10,NW,326,1.0,6.0,43,0.00,,,0.00,weatherlink.com 1.10,2013-02-12 09:36:00,
2013-02-12 04:51:00,41.1,25.0,30.09,SW,219,2.0,2.0,53,0.00,,,0.00,weatherlink.com 1.10,2013-02-12 09:51:00,
2013-02-12 05:06:00,39.9,23.0,30.11,SW,218,1.0,4.0,51,0.00,,,0.00,weatherlink.com 1.10,2013-02-12 10:06:00,
2013-02-12 05:21:00,38.7,23.0,30.11,SE,132,3.0,4.0,54,0.00,,,0.00,weatherlink.com 1.10,2013-02-12 10:21:00,
2013-02-12 05:36:00,37.2,25.0,30.08,SW,219,4.0,4.0,62,0.00,,,0.00,weatherlink.com 1.10,2013-02-12 10:36:00,
2013-02-12 05:51:00,39.0,19.0,30.09,SSW,200,2.0,7.0,44,0.00,,,0.00,weatherlink.com 1.10,2013-02-12 10:51:00,
2013-02-12 06:06:00,37.7,26.0,30.09,NW,308,0.0,3.0,63,0.00,,,0.00,weatherlink.com 1.10,2013-02-12 11:06:00,
2013-02-12 06:21:00,37.2,27.0,30.09,SE,135,0.0,2.0,66,0.00,,,0.00,weatherlink.com 1.10,2013-02-12 11:21:00,
2013-02-12 06:36:00,37.2,27.0,30.10,ESE,121,0.0,1.0,67,0.00,,,0.00,weatherlink.com 1.10,2013-02-12 11:36:00,
2013-02-12 06:51:00,38.5,22.0,30.11,SE,125,0.0,3.0,51,0.00,,,0.00,weatherlink.com 1.10,2013-02-12 11:51:00,
2013-02-12 07:06:00,38.5,25.0,30.12,West,267,0.0,4.0,59,0.00,,,0.00,weatherlink.com 1.10,2013-02-12 12:06:00,
2013-02-12 07:21:00,38.1,26.0,30.13,SE,139,0.0,3.0,62,0.00,,,0.00,weatherlink.com 1.10,2013-02-12 12:21:00,
2013-02-12 07:36:00,38.8,25.0,30.12,SSW,210,1.0,3.0,59,0.00,,,0.00,weatherlink.com 1.10,2013-02-12 12:36:00,
2013-02-12 07:51:00,38.3,25.0,30.11,South,184,2.0,3.0,59,0.00,,,0.00,weatherlink.com 1.10,2013-02-12 12:51:00,
2013-02-12 08:06:00,39.4,20.0,30.12,SSW,212,3.0,7.0,45,0.00,,,0.00,weatherlink.com 1.10,2013-02-12 13:06:00,
2013-02-12 08:21:00,42.6,18.0,30.13,SSE,162,1.0,7.0,37,0.00,,,0.00,weatherlink.com 1.10,2013-02-12 13:21:00,
2013-02-12 08:36:00,43.5,19.0,30.14,SSW,200,2.0,6.0,38,0.00,,,0.00,weatherlink.com 1.10,2013-02-12 13:36:00,
2013-02-12 08:51:00,43.9,20.0,30.15,SE,128,0.0,3.0,39,0.00,,,0.00,weatherlink.com 1.10,2013-02-12 13:51:00,
2013-02-12 09:06:00,44.9,18.0,30.14,NW,313,1.0,4.0,34,0.00,,,0.00,weatherlink.com 1.10,2013-02-12 14:06:00,
2013-02-12 09:21:00,46.1,18.0,30.15,SW,228,0.0,4.0,33,0.00,,,0.00,weatherlink.com 1.10,2013-02-12 14:21:00,
2013-02-12 09:36:00,48.1,19.0,30.14,WSW,256,2.0,4.0,31,0.00,,,0.00,weatherlink.com 1.10,2013-02-12 14:36:00,
2013-02-12 09:51:00,49.6,18.0,30.14,South,185,4.0,5.0,29,0.00,,,0.00,weatherlink.com 1.10,2013-02-12 14:51:00,
2013-02-12 10:07:00,50.8,17.0,30.13,South,190,3.0,4.0,26,0.00,,,0.00,weatherlink.com 1.10,2013-02-12 15:07:00,
2013-02-12 10:22:00,52.4,13.0,30.13,NW,314,5.0,7.0,21,0.00,,,0.00,weatherlink.com 1.10,2013-02-12 15:22:00,
2013-02-12 10:37:00,53.5,12.0,30.13,NW,311,2.0,7.0,19,0.00,,,0.00,weatherlink.com 1.10,2013-02-12 15:37:00,
2013-02-12 10:52:00,54.1,9.0,30.12,NW,304,5.0,10.0,16,0.00,,,0.00,weatherlink.com 1.10,2013-02-12 15:52:00,
2013-02-12 11:07:00,55.1,11.0,30.11,WSW,255,1.0,6.0,17,0.00,,,0.00,weatherlink.com 1.10,2013-02-12 16:07:00,
2013-02-12 11:22:00,56.6,9.0,30.12,SW,215,1.0,3.0,15,0.00,,,0.00,weatherlink.com 1.10,2013-02-12 16:22:00,
2013-02-12 11:37:00,55.4,12.0,30.11,ENE,60,8.0,8.0,18,0.00,,,0.00,weatherlink.com 1.10,2013-02-12 16:37:00,
2013-02-12 11:52:00,53.2,25.0,30.13,ESE,122,2.0,13.0,33,0.00,,,0.00,weatherlink.com 1.10,2013-02-12 16:52:00,
2013-02-12 12:07:00,52.2,24.0,30.12,ESE,105,1.0,8.0,34,0.00,,,0.00,weatherlink.com 1.10,2013-02-12 17:07:00,
2013-02-12 12:22:00,52.2,22.0,30.13,East,81,3.0,6.0,31,0.00,,,0.00,weatherlink.com 1.10,2013-02-12 17:22:00,
2013-02-12 12:37:00,52.1,24.0,30.12,ENE,63,2.0,6.0,33,0.00,,,0.00,weatherlink.com 1.10,2013-02-12 17:37:00,
2013-02-12 12:52:00,51.8,24.0,30.11,NNE,32,1.0,5.0,34,0.00,,,0.00,weatherlink.com 1.10,2013-02-12 17:52:00,
2013-02-12 13:07:00,51.5,22.0,30.11,ENE,72,1.0,6.0,31,0.00,,,0.00,weatherlink.com 1.10,2013-02-12 18:07:00,
2013-02-12 13:22:00,51.7,23.0,30.10,East,81,1.0,4.0,33,0.00,,,0.00,weatherlink.com 1.10,2013-02-12 18:22:00,
2013-02-12 13:37:00,51.9,23.0,30.10,SSE,159,2.0,6.0,33,0.00,,,0.00,weatherlink.com 1.10,2013-02-12 18:37:00,
2013-02-12 13:52:00,51.8,20.0,30.10,ENE,70,4.0,5.0,29,0.00,,,0.00,weatherlink.com 1.10,2013-02-12 18:52:00,
2013-02-12 14:07:00,51.8,23.0,30.09,ENE,77,6.0,6.0,33,0.00,,,0.00,weatherlink.com 1.10,2013-02-12 19:07:00,
2013-02-12 14:22:00,51.2,23.0,30.08,NNE,30,0.0,8.0,33,0.00,,,0.00,weatherlink.com 1.10,2013-02-12 19:22:00,
2013-02-12 14:37:00,50.9,22.0,30.08,SE,136,2.0,4.0,32,0.00,,,0.00,weatherlink.com 1.10,2013-02-12 19:37:00,
2013-02-12 14:52:00,50.8,25.0,30.07,SE,133,0.0,3.0,36,0.00,,,0.00,weatherlink.com 1.10,2013-02-12 19:52:00,
2013-02-12 15:07:00,50.4,25.0,30.08,ESE,107,1.0,3.0,37,0.00,,,0.00,weatherlink.com 1.10,2013-02-12 20:07:00,
2013-02-12 15:22:00,50.1,26.0,30.09,SSW,194,1.0,2.0,40,0.00,,,0.00,weatherlink.com 1.10,2013-02-12 20:22:00,
2013-02-12 15:37:00,50.2,27.0,30.09,NE,53,0.0,1.0,40,0.00,,,0.00,weatherlink.com 1.10,2013-02-12 20:37:00,
2013-02-12 15:52:00,50.2,27.0,30.09,NE,56,0.0,0.0,40,0.00,,,0.00,weatherlink.com 1.10,2013-02-12 20:52:00,
2013-02-12 16:07:00,49.8,27.0,30.08,SE,124,0.0,1.0,42,0.00,,,0.00,weatherlink.com 1.10,2013-02-12 21:07:00,
2013-02-12 16:22:00,49.6,29.0,30.06,SE,140,0.0,0.0,46,0.00,,,0.00,weatherlink.com 1.10,2013-02-12 21:22:00,
2013-02-12 16:37:00,49.6,28.0,30.06,SW,233,0.0,1.0,44,0.00,,,0.00,weatherlink.com 1.10,2013-02-12 21:37:00,
2013-02-12 16:52:00,49.3,30.0,30.05,SSE,153,0.0,1.0,47,0.00,,,0.00,weatherlink.com 1.10,2013-02-12 21:52:00,
2013-02-12 17:07:00,48.2,34.0,30.06,SSE,158,0.0,1.0,58,0.00,,,0.00,weatherlink.com 1.10,2013-02-12 22:07:00,
2013-02-12 17:22:00,47.3,38.0,30.04,WSW,258,1.0,1.0,69,0.00,,,0.00,weatherlink.com 1.10,2013-02-12 22:22:00,
2013-02-12 17:37:00,44.8,38.0,30.00,SSW,197,1.0,3.0,76,0.00,,,0.00,weatherlink.com 1.10,2013-02-12 22:37:00,
2013-02-12 17:52:00,43.7,39.0,30.00,ESE,114,0.0,2.0,83,0.00,,,0.00,weatherlink.com 1.10,2013-02-12 22:52:00,
2013-02-12 18:07:00,43.4,39.0,29.99,East,100,0.0,0.0,85,0.00,,,0.00,weatherlink.com 1.10,2013-02-12 23:07:00,
2013-02-12 18:23:00,42.9,40.0,30.02,NW,308,0.0,1.0,89,0.00,,,0.00,weatherlink.com 1.10,2013-02-12 23:23:00,
2013-02-12 18:38:00,42.7,39.0,30.04,SSW,201,0.0,2.0,88,0.01,,,0.01,weatherlink.com 1.10,2013-02-12 23:38:00,
2013-02-12 18:53:00,41.8,39.0,30.05,SSW,202,0.0,0.0,90,0.04,,,0.04,weatherlink.com 1.10,2013-02-12 23:53:00,
2013-02-12 19:08:00,40.7,39.0,30.04,SSW,201,0.0,0.0,93,0.05,,,0.05,weatherlink.com 1.10,2013-02-13 00:08:00,
2013-02-12 19:23:00,40.2,39.0,30.04,SSW,212,0.0,1.0,94,0.05,,,0.05,weatherlink.com 1.10,2013-02-13 00:23:00,
2013-02-12 19:38:00,40.0,39.0,30.04,SSW,207,0.0,1.0,95,0.05,,,0.06,weatherlink.com 1.10,2013-02-13 00:38:00,
2013-02-12 19:53:00,40.0,39.0,30.02,SSW,207,0.0,1.0,95,0.03,,,0.07,weatherlink.com 1.10,2013-02-13 00:53:00,
2013-02-12 20:08:00,40.1,39.0,30.02,SE,134,2.0,2.0,96,0.04,,,0.09,weatherlink.com 1.10,2013-02-13 01:08:00,
2013-02-12 20:23:00,40.1,39.0,30.02,SE,132,0.0,2.0,96,0.05,,,0.10,weatherlink.com 1.10,2013-02-13 01:23:00,
2013-02-12 20:38:00,40.1,39.0,30.02,SE,132,0.0,1.0,97,0.04,,,0.10,weatherlink.com 1.10,2013-02-13 01:38:00,
2013-02-12 20:53:00,39.9,39.0,30.03,ESE,121,0.0,1.0,96,0.03,,,0.10,weatherlink.com 1.10,2013-02-13 01:53:00,
2013-02-12 21:08:00,39.5,39.0,30.03,South,180,0.0,2.0,96,0.01,,,0.10,weatherlink.com 1.10,2013-02-13 02:08:00,
2013-02-12 21:23:00,39.5,39.0,30.04,South,187,0.0,0.0,96,0.00,,,0.10,weatherlink.com 1.10,2013-02-13 02:23:00,
2013-02-12 21:38:00,39.2,38.0,30.02,SSW,200,0.0,0.0,96,0.00,,,0.10,weatherlink.com 1.10,2013-02-13 02:38:00,
2013-02-12 21:53:00,38.7,37.0,30.03,SSW,200,1.0,1.0,95,0.00,,,0.10,weatherlink.com 1.10,2013-02-13 02:53:00,
2013-02-12 22:08:00,38.5,37.0,30.01,SSW,200,0.0,0.0,95,0.00,,,0.10,weatherlink.com 1.10,2013-02-13 03:08:00,
2013-02-12 22:23:00,38.3,37.0,30.02,SSW,212,0.0,1.0,95,0.00,,,0.10,weatherlink.com 1.10,2013-02-13 03:23:00,
2013-02-12 22:38:00,38.1,37.0,29.99,SSE,159,0.0,2.0,95,0.00,,,0.10,weatherlink.com 1.10,2013-02-13 03:38:00,
2013-02-12 22:53:00,37.9,36.0,30.00,SW,224,0.0,1.0,94,0.00,,,0.10,weatherlink.com 1.10,2013-02-13 03:53:00,
2013-02-12 23:08:00,37.9,37.0,29.99,SE,129,1.0,1.0,95,0.00,,,0.10,weatherlink.com 1.10,2013-02-13 04:08:00,
2013-02-12 23:23:00,38.2,36.0,29.98,SE,125,0.0,5.0,92,0.00,,,0.10,weatherlink.com 1.10,2013-02-13 04:23:00,
2013-02-12 23:38:00,38.5,36.0,29.97,NE,56,1.0,6.0,90,0.00,,,0.10,weatherlink.com 1.10,2013-02-13 04:38:00,
2013-02-12 23:53:00,38.3,37.0,29.99,NE,49,4.0,4.0,93,0.00,,,0.10,weatherlink.com 1.10,2013-02-13 04:53:00,